Time;durP1;ratioP1;P1;durP2;ratioP2;P2;SDS_P1;SDS_P2;PMS_P1;PMS_P2;Temp;Humidity;BMP_temperature;BMP_pressure;BME280_temperature;BME280_humidity;BME280_pressure;Samples;Min_cycle;Max_cycle;Signal;HPM_P1;HPM_P2
2022/11/27 00:01:19;;;;;;;16.30;4.85;;;;;;;;;;4870031;29;20148;-77
2022/11/27 00:03:46;;;;;;;17.75;6.55;;;;;;;;;;4872668;29;20604;-76
2022/11/27 00:06:14;;;;;;;16.17;4.50;;;;;;;;;;4873598;29;20520;-78
2022/11/27 00:08:41;;;;;;;14.88;4.45;;;;;;;;;;4885047;29;20539;-78
2022/11/27 00:11:09;;;;;;;18.20;5.25;;;;;;;;;;4872290;29;20471;-77
2022/11/27 00:13:36;;;;;;;13.73;4.40;;;;;;;;;;4873692;29;20755;-76
2022/11/27 00:16:03;;;;;;;18.50;5.13;;;;;;;;;;4887804;29;20057;-77
2022/11/27 00:18:29;;;;;;;24.15;5.50;;;;;;;;;;4887598;29;20121;-76
2022/11/27 00:21:00;;;;;;;15.07;5.07;;;;;;;;;;4889840;29;20092;-76
2022/11/27 00:23:26;;;;;;;;;;;;;;;;;;4863909;29;20058;-77
2022/11/27 00:25:53;;;;;;;20.98;4.40;;;;;;;;;;4880144;29;45972;-78
2022/11/27 00:28:19;;;;;;;17.05;4.80;;;;;;;;;;4880506;29;20053;-76
2022/11/27 00:30:46;;;;;;;15.15;4.70;;;;;;;;;;4897231;29;20275;-76
2022/11/27 00:33:12;;;;;;;17.33;4.50;;;;;;;;;;4889741;29;20116;-79
2022/11/27 00:35:39;;;;;;;21.80;5.45;;;;;;;;;;4890080;29;20547;-76
2022/11/27 00:38:05;;;;;;;13.20;4.50;;;;;;;;;;4889005;29;20068;-76
2022/11/27 00:40:31;;;;;;;18.92;4.72;;;;;;;;;;4888362;29;20427;-76
2022/11/27 00:42:58;;;;;;;16.02;4.55;;;;;;;;;;4876751;29;20147;-76
2022/11/27 00:45:24;;;;;;;15.65;4.95;;;;;;;;;;4909050;29;20087;-75
2022/11/27 00:47:50;;;;;;;19.48;4.63;;;;;;;;;;4908164;29;20089;-76
2022/11/27 00:50:17;;;;;;;17.13;4.68;;;;;;;;;;4909186;29;20071;-76
2022/11/27 00:52:43;;;;;;;14.88;4.18;;;;;;;;;;4892850;29;20312;-76
2022/11/27 00:55:11;;;;;;;19.67;4.93;;;;;;;;;;4887796;29;20065;-75
2022/11/27 00:57:37;;;;;;;14.18;4.80;;;;;;;;;;4885114;29;20448;-76
2022/11/27 01:00:04;;;;;;;11.38;4.05;;;;;;;;;;4889062;29;20061;-75
2022/11/27 01:02:31;;;;;;;14.75;5.18;;;;;;;;;;4890117;29;20848;-76
2022/11/27 01:04:57;;;;;;;10.38;4.18;;;;;;;;;;4871768;29;20061;-76
2022/11/27 01:07:25;;;;;;;12.57;4.63;;;;;;;;;;4883059;29;20053;-76
2022/11/27 01:09:51;;;;;;;19.02;4.68;;;;;;;;;;4891729;29;20057;-77
2022/11/27 01:12:17;;;;;;;16.90;4.82;;;;;;;;;;4890374;29;20064;-76
2022/11/27 01:14:44;;;;;;;14.00;4.40;;;;;;;;;;4889373;29;20105;-75
2022/11/27 01:17:10;;;;;;;16.55;4.60;;;;;;;;;;4887014;29;20418;-76
2022/11/27 01:19:37;;;;;;;17.35;4.47;;;;;;;;;;4869457;29;20061;-76
2022/11/27 01:22:03;;;;;;;12.90;4.50;;;;;;;;;;4889328;29;20362;-75
2022/11/27 01:24:30;;;;;;;15.93;4.55;;;;;;;;;;4873347;29;20493;-76
2022/11/27 01:26:56;;;;;;;11.88;4.28;;;;;;;;;;4881705;29;20538;-76
2022/11/27 01:29:22;;;;;;;13.38;5.20;;;;;;;;;;4872937;29;20531;-76
2022/11/27 01:31:49;;;;;;;21.35;4.93;;;;;;;;;;4889386;29;20126;-76
2022/11/27 01:34:16;;;;;;;17.95;5.07;;;;;;;;;;4888097;29;20060;-76
2022/11/27 01:36:43;;;;;;;10.90;4.32;;;;;;;;;;4872801;29;20060;-76
2022/11/27 01:39:13;;;;;;;13.80;4.78;;;;;;;;;;4904361;29;20049;-76
2022/11/27 01:41:40;;;;;;;21.13;5.07;;;;;;;;;;4889674;29;20068;-77
2022/11/27 01:44:24;;;;;;;14.10;4.63;;;;;;;;;;4870193;29;20053;-76
2022/11/27 01:46:54;;;;;;;12.15;4.65;;;;;;;;;;4870244;29;20523;-76
2022/11/27 01:49:27;;;;;;;13.77;4.88;;;;;;;;;;4877814;29;20053;-76
2022/11/27 01:51:57;;;;;;;21.83;5.43;;;;;;;;;;4885864;29;20542;-76
2022/11/27 01:54:25;;;;;;;12.73;4.97;;;;;;;;;;4889979;29;20152;-76
2022/11/27 01:56:55;;;;;;;21.67;5.13;;;;;;;;;;4880276;29;20069;-75
2022/11/27 01:59:22;;;;;;;15.85;5.35;;;;;;;;;;4886968;29;20064;-77
2022/11/27 02:01:48;;;;;;;12.68;4.45;;;;;;;;;;4869939;29;20719;-76
2022/11/27 02:04:16;;;;;;;18.30;5.50;;;;;;;;;;4887975;29;20510;-76
2022/11/27 02:06:42;;;;;;;18.70;4.80;;;;;;;;;;4870463;29;20061;-76
2022/11/27 02:09:09;;;;;;;17.17;5.28;;;;;;;;;;4886559;29;20167;-76
2022/11/27 02:11:35;;;;;;;21.30;5.28;;;;;;;;;;4889860;29;20255;-76
2022/11/27 02:14:04;;;;;;;20.42;5.15;;;;;;;;;;4901058;29;20056;-76
2022/11/27 02:16:57;;;;;;;19.13;5.05;;;;;;;;;;4901143;29;20061;-76
2022/11/27 02:19:53;;;;;;;17.38;4.75;;;;;;;;;;4885568;29;20071;-76
2022/11/27 02:22:19;;;;;;;16.48;4.75;;;;;;;;;;4865199;29;20053;-76
2022/11/27 02:24:46;;;;;;;12.50;4.50;;;;;;;;;;4885501;29;20065;-76
2022/11/27 02:27:31;;;;;;;16.27;4.68;;;;;;;;;;4897961;29;20513;-76
2022/11/27 02:29:59;;;;;;;18.52;4.53;;;;;;;;;;4886846;29;20088;-76
2022/11/27 02:32:30;;;;;;;17.60;5.07;;;;;;;;;;4870785;29;20094;-76
2022/11/27 02:35:05;;;;;;;13.35;4.47;;;;;;;;;;4871483;29;20807;-76
2022/11/27 02:37:50;;;;;;;18.27;4.90;;;;;;;;;;4874660;29;20056;-76
2022/11/27 02:40:30;;;;;;;11.68;4.38;;;;;;;;;;4890782;29;20048;-76
2022/11/27 02:43:06;;;;;;;15.23;4.65;;;;;;;;;;4889701;29;20075;-76
2022/11/27 02:45:36;;;;;;;15.45;4.72;;;;;;;;;;4877293;29;20131;-76
2022/11/27 02:48:03;;;;;;;15.98;5.22;;;;;;;;;;4867773;29;20136;-76
2022/11/27 02:50:30;;;;;;;11.35;4.40;;;;;;;;;;4879419;29;20060;-76
2022/11/27 02:52:59;;;;;;;17.77;5.32;;;;;;;;;;4882413;29;20125;-76
2022/11/27 02:55:28;;;;;;;13.60;5.13;;;;;;;;;;4885997;29;20064;-76
2022/11/27 02:57:55;;;;;;;15.60;4.90;;;;;;;;;;4882551;29;20074;-76
2022/11/27 03:00:21;;;;;;;16.42;4.70;;;;;;;;;;4875930;29;20159;-76
2022/11/27 03:02:51;;;;;;;17.98;4.72;;;;;;;;;;4890377;29;20053;-76
2022/11/27 03:05:18;;;;;;;15.52;4.72;;;;;;;;;;4880677;29;20099;-76
2022/11/27 03:08:14;;;;;;;18.27;4.90;;;;;;;;;;4874953;29;20503;-76
2022/11/27 03:10:43;;;;;;;18.08;5.32;;;;;;;;;;4865125;29;20065;-76
2022/11/27 03:13:10;;;;;;;15.13;5.05;;;;;;;;;;4882086;29;20065;-76
2022/11/27 03:15:57;;;;;;;16.73;4.88;;;;;;;;;;4870619;29;20516;-76
2022/11/27 03:18:29;;;;;;;12.18;4.13;;;;;;;;;;4869941;29;20152;-76
2022/11/27 03:21:03;;;;;;;24.27;4.93;;;;;;;;;;4869829;29;20517;-76
2022/11/27 03:23:29;;;;;;;16.20;4.97;;;;;;;;;;4884536;29;20057;-76
2022/11/27 03:25:55;;;;;;;17.02;5.15;;;;;;;;;;4889876;29;20536;-76
2022/11/27 03:28:22;;;;;;;12.38;4.70;;;;;;;;;;4861716;29;20065;-76
2022/11/27 03:30:48;;;;;;;13.98;4.55;;;;;;;;;;4873878;29;20052;-76
2022/11/27 03:33:14;;;;;;;13.35;5.05;;;;;;;;;;4881194;29;20053;-76
2022/11/27 03:35:41;;;;;;;14.30;4.82;;;;;;;;;;4884560;29;20170;-76
2022/11/27 03:38:07;;;;;;;16.58;5.00;;;;;;;;;;4881873;29;20061;-76
2022/11/27 03:40:43;;;;;;;15.10;4.50;;;;;;;;;;4888356;29;20504;-76
2022/11/27 03:43:17;;;;;;;18.00;4.65;;;;;;;;;;4852634;29;20428;-76
2022/11/27 03:45:43;;;;;;;16.00;4.85;;;;;;;;;;4886687;29;20131;-76
2022/11/27 03:48:12;;;;;;;15.25;4.53;;;;;;;;;;4858379;29;20061;-76
2022/11/27 03:50:42;;;;;;;12.50;4.72;;;;;;;;;;4883388;29;20134;-77
2022/11/27 03:53:08;;;;;;;12.13;4.45;;;;;;;;;;4885979;29;20057;-76
2022/11/27 03:55:44;;;;;;;13.32;4.50;;;;;;;;;;4885379;29;20524;-76
2022/11/27 03:58:20;;;;;;;12.95;4.40;;;;;;;;;;4869353;29;20069;-76
2022/11/27 04:00:47;;;;;;;12.30;4.55;;;;;;;;;;4886378;29;20057;-76
2022/11/27 04:03:20;;;;;;;14.52;4.03;;;;;;;;;;4882984;29;20812;-76
2022/11/27 04:05:47;;;;;;;12.50;4.03;;;;;;;;;;4870433;29;20057;-76
2022/11/27 04:08:13;;;;;;;14.82;4.25;;;;;;;;;;4869288;29;20057;-76
2022/11/27 04:10:39;;;;;;;13.23;3.92;;;;;;;;;;4886988;29;20061;-76
2022/11/27 04:13:06;;;;;;;11.52;3.97;;;;;;;;;;4888729;29;20497;-76
2022/11/27 04:15:32;;;;;;;18.02;4.95;;;;;;;;;;4870251;29;20163;-77
2022/11/27 04:17:58;;;;;;;19.85;5.03;;;;;;;;;;4885068;29;20514;-76
2022/11/27 04:20:25;;;;;;;13.15;4.40;;;;;;;;;;4886356;29;20057;-76
2022/11/27 04:22:51;;;;;;;15.30;3.97;;;;;;;;;;4884989;29;20084;-76
2022/11/27 04:25:17;;;;;;;12.25;4.72;;;;;;;;;;4878122;29;20048;-76
2022/11/27 04:27:44;;;;;;;13.70;4.35;;;;;;;;;;4871675;29;20063;-76
2022/11/27 04:30:10;;;;;;;19.67;4.43;;;;;;;;;;4886208;29;20168;-76
2022/11/27 04:32:37;;;;;;;13.18;4.25;;;;;;;;;;4885805;29;20064;-76
2022/11/27 04:35:04;;;;;;;11.25;4.05;;;;;;;;;;4873124;29;20430;-76
2022/11/27 04:37:30;;;;;;;11.25;4.65;;;;;;;;;;4877338;29;20063;-75
2022/11/27 04:39:56;;;;;;;14.50;3.70;;;;;;;;;;4870610;29;20596;-76
2022/11/27 04:42:23;;;;;;;10.85;3.90;;;;;;;;;;4885506;29;20053;-76
2022/11/27 04:44:49;;;;;;;12.27;3.85;;;;;;;;;;4879992;29;20440;-76
2022/11/27 04:47:16;;;;;;;12.30;3.47;;;;;;;;;;4870373;29;20429;-76
2022/11/27 04:49:42;;;;;;;10.95;3.95;;;;;;;;;;4879525;29;20088;-75
2022/11/27 04:52:09;;;;;;;9.57;3.60;;;;;;;;;;4877891;29;20691;-77
2022/11/27 04:54:36;;;;;;;11.73;3.80;;;;;;;;;;4889100;29;20592;-76
2022/11/27 04:57:04;;;;;;;10.90;3.38;;;;;;;;;;4873925;29;20563;-75
2022/11/27 04:59:31;;;;;;;16.25;4.10;;;;;;;;;;4892423;29;20049;-76
2022/11/27 05:01:57;;;;;;;12.05;4.00;;;;;;;;;;4894342;29;20059;-76
2022/11/27 05:04:24;;;;;;;16.38;4.15;;;;;;;;;;4892547;29;21047;-76
2022/11/27 05:06:50;;;;;;;19.90;4.15;;;;;;;;;;4889980;29;20067;-75
2022/11/27 05:09:17;;;;;;;11.10;3.72;;;;;;;;;;4904382;29;20159;-75
2022/11/27 05:11:43;;;;;;;8.68;3.47;;;;;;;;;;4896397;29;20148;-76
2022/11/27 05:14:21;;;;;;;12.38;3.35;;;;;;;;;;4884931;29;20065;-76
2022/11/27 05:16:49;;;;;;;9.80;3.45;;;;;;;;;;4873729;29;20141;-75
2022/11/27 05:19:16;;;;;;;13.55;3.50;;;;;;;;;;4871576;29;20525;-76
2022/11/27 05:21:43;;;;;;;8.93;3.33;;;;;;;;;;4886068;29;20188;-76
2022/11/27 05:24:09;;;;;;;14.05;3.67;;;;;;;;;;4867604;29;20053;-76
2022/11/27 05:26:36;;;;;;;11.18;3.08;;;;;;;;;;4887149;29;20417;-76
2022/11/27 05:29:02;;;;;;;7.53;2.92;;;;;;;;;;4885104;29;20087;-76
2022/11/27 05:31:28;;;;;;;13.52;3.40;;;;;;;;;;4863602;29;20065;-76
2022/11/27 05:33:55;;;;;;;10.63;3.35;;;;;;;;;;4853977;29;20157;-76
2022/11/27 05:36:21;;;;;;;12.13;3.08;;;;;;;;;;4882775;29;20061;-75
2022/11/27 05:38:48;;;;;;;16.25;3.75;;;;;;;;;;4871544;29;20064;-77
2022/11/27 05:41:14;;;;;;;14.02;3.15;;;;;;;;;;4882760;29;20520;-76
2022/11/27 05:43:41;;;;;;;10.05;3.20;;;;;;;;;;4885665;29;20528;-76
2022/11/27 05:46:08;;;;;;;9.73;3.15;;;;;;;;;;4870964;29;20582;-76
2022/11/27 05:48:35;;;;;;;11.07;3.13;;;;;;;;;;4886815;29;20057;-76
2022/11/27 05:51:02;;;;;;;10.40;3.45;;;;;;;;;;4872524;29;20591;-76
2022/11/27 05:53:29;;;;;;;10.60;2.88;;;;;;;;;;4870697;29;20736;-76
2022/11/27 05:56:01;;;;;;;7.70;3.10;;;;;;;;;;4889604;29;20068;-76
2022/11/27 05:58:28;;;;;;;10.32;3.13;;;;;;;;;;4870055;29;20053;-76
2022/11/27 06:00:54;;;;;;;7.50;2.70;;;;;;;;;;4872620;29;20057;-76
2022/11/27 06:03:20;;;;;;;13.23;3.33;;;;;;;;;;4882589;29;20053;-76
2022/11/27 06:05:47;;;;;;;9.45;2.72;;;;;;;;;;4869666;29;20092;-76
2022/11/27 06:08:13;;;;;;;11.73;3.35;;;;;;;;;;4872326;29;20140;-76
2022/11/27 06:10:39;;;;;;;8.77;3.03;;;;;;;;;;4866232;29;20210;-76
2022/11/27 06:13:06;;;;;;;12.52;2.97;;;;;;;;;;4883420;29;20065;-76
2022/11/27 06:15:32;;;;;;;10.50;3.08;;;;;;;;;;4889070;29;20107;-75
2022/11/27 06:17:59;;;;;;;14.50;3.33;;;;;;;;;;4859538;29;20064;-76
2022/11/27 06:20:25;;;;;;;11.40;3.22;;;;;;;;;;4885030;29;20527;-76
2022/11/27 06:22:51;;;;;;;10.80;3.70;;;;;;;;;;4878231;29;20160;-78
2022/11/27 06:25:18;;;;;;;9.55;3.25;;;;;;;;;;4883294;29;20148;-75
2022/11/27 06:27:44;;;;;;;9.85;3.15;;;;;;;;;;4888552;29;20077;-76
2022/11/27 06:30:10;;;;;;;11.57;3.22;;;;;;;;;;4895566;29;20071;-75
2022/11/27 06:32:37;;;;;;;10.10;3.20;;;;;;;;;;4865607;29;20057;-76
2022/11/27 06:35:04;;;;;;;12.82;3.45;;;;;;;;;;4880358;29;20072;-76
2022/11/27 06:37:30;;;;;;;9.75;3.28;;;;;;;;;;4888608;29;20099;-76
2022/11/27 06:39:56;;;;;;;9.05;3.22;;;;;;;;;;4888087;29;20064;-77
2022/11/27 06:42:23;;;;;;;9.13;2.90;;;;;;;;;;4883704;29;20525;-76
2022/11/27 06:44:49;;;;;;;8.60;2.80;;;;;;;;;;4882200;29;20057;-76
2022/11/27 06:47:15;;;;;;;10.10;2.95;;;;;;;;;;4870242;29;20281;-76
2022/11/27 06:49:41;;;;;;;10.48;3.40;;;;;;;;;;4882465;29;20516;-76
2022/11/27 06:52:08;;;;;;;8.77;2.65;;;;;;;;;;4869105;29;20087;-75
2022/11/27 06:54:34;;;;;;;7.93;2.70;;;;;;;;;;4886028;29;20065;-76
2022/11/27 06:57:01;;;;;;;12.23;2.78;;;;;;;;;;4869605;29;20061;-79
2022/11/27 06:59:27;;;;;;;11.00;2.97;;;;;;;;;;4869655;29;20151;-76
2022/11/27 07:01:53;;;;;;;10.13;3.60;;;;;;;;;;4881667;29;20083;-76
2022/11/27 07:04:20;;;;;;;10.50;3.40;;;;;;;;;;4884089;29;20068;-76
2022/11/27 07:06:46;;;;;;;12.10;3.80;;;;;;;;;;4867693;29;20539;-77
2022/11/27 07:09:12;;;;;;;10.70;3.25;;;;;;;;;;4883158;29;20157;-76
2022/11/27 07:11:39;;;;;;;9.95;3.30;;;;;;;;;;4869825;29;20063;-77
2022/11/27 07:14:05;;;;;;;10.23;3.53;;;;;;;;;;4886897;29;20056;-76
2022/11/27 07:16:33;;;;;;;7.90;3.38;;;;;;;;;;4870857;29;20132;-76
2022/11/27 07:19:01;;;;;;;9.07;2.90;;;;;;;;;;4884339;29;20527;-76
2022/11/27 07:21:28;;;;;;;11.18;3.13;;;;;;;;;;4871122;29;20144;-76
2022/11/27 07:23:55;;;;;;;15.85;3.45;;;;;;;;;;4890491;29;20089;-76
2022/11/27 07:26:26;;;;;;;11.10;3.17;;;;;;;;;;4857654;29;20151;-76
2022/11/27 07:28:53;;;;;;;10.27;3.67;;;;;;;;;;4867535;29;20668;-76
2022/11/27 07:31:21;;;;;;;8.38;2.90;;;;;;;;;;4887019;29;20057;-77
2022/11/27 07:33:47;;;;;;;10.32;3.70;;;;;;;;;;4865242;29;20056;-77
2022/11/27 07:36:15;;;;;;;11.40;3.70;;;;;;;;;;4863953;29;20165;-77
2022/11/27 07:38:42;;;;;;;12.93;4.80;;;;;;;;;;4885464;29;20053;-76
2022/11/27 07:41:08;;;;;;;13.80;4.55;;;;;;;;;;4869921;29;20535;-76
2022/11/27 07:43:35;;;;;;;12.10;5.32;;;;;;;;;;4867738;29;20057;-77
2022/11/27 07:46:02;;;;;;;12.63;4.05;;;;;;;;;;4871352;29;20060;-77
2022/11/27 07:48:29;;;;;;;12.57;3.88;;;;;;;;;;4884622;29;20053;-77
2022/11/27 07:50:55;;;;;;;10.30;4.15;;;;;;;;;;4888739;29;20501;-77
2022/11/27 07:53:22;;;;;;;13.60;4.65;;;;;;;;;;4866034;29;20064;-77
2022/11/27 07:55:48;;;;;;;12.95;4.40;;;;;;;;;;4884363;29;20046;-77
2022/11/27 07:58:14;;;;;;;16.02;4.97;;;;;;;;;;4886591;29;20140;-78
2022/11/27 08:00:41;;;;;;;15.48;4.90;;;;;;;;;;4894241;29;20141;-78
2022/11/27 08:03:08;;;;;;;14.73;4.22;;;;;;;;;;4873188;29;20532;-77
2022/11/27 08:05:35;;;;;;;16.48;5.38;;;;;;;;;;4869132;29;20569;-78
2022/11/27 08:08:03;;;;;;;18.33;8.27;;;;;;;;;;4872304;29;20064;-78
2022/11/27 08:10:30;;;;;;;14.05;5.00;;;;;;;;;;4872784;29;20053;-77
2022/11/27 08:12:56;;;;;;;14.25;5.13;;;;;;;;;;4868366;29;20060;-78
2022/11/27 08:15:23;;;;;;;13.63;4.78;;;;;;;;;;4871073;29;20515;-77
2022/11/27 08:17:49;;;;;;;13.02;4.10;;;;;;;;;;4861865;29;20069;-78
2022/11/27 08:20:16;;;;;;;13.23;3.88;;;;;;;;;;4887949;29;20068;-77
2022/11/27 08:22:42;;;;;;;11.60;3.92;;;;;;;;;;4870974;29;20061;-78
2022/11/27 08:25:08;;;;;;;15.10;5.50;;;;;;;;;;4870810;29;20144;-78
2022/11/27 08:27:35;;;;;;;26.88;10.77;;;;;;;;;;4885593;29;20130;-77
2022/11/27 08:30:02;;;;;;;21.65;6.93;;;;;;;;;;4866612;29;20440;-77
2022/11/27 08:32:28;;;;;;;25.38;11.75;;;;;;;;;;4889350;29;20469;-77
2022/11/27 08:34:54;;;;;;;19.15;7.35;;;;;;;;;;4891410;29;20451;-77
2022/11/27 08:37:21;;;;;;;17.08;6.05;;;;;;;;;;4887533;29;20064;-77
2022/11/27 08:39:47;;;;;;;32.70;13.10;;;;;;;;;;4886771;29;20504;-77
2022/11/27 08:42:14;;;;;;;20.75;8.32;;;;;;;;;;4872726;29;20088;-77
2022/11/27 08:44:40;;;;;;;15.80;6.50;;;;;;;;;;4874807;29;20161;-77
2022/11/27 08:47:07;;;;;;;22.13;10.15;;;;;;;;;;4873910;29;20056;-77
2022/11/27 08:49:34;;;;;;;13.73;6.68;;;;;;;;;;4870221;29;20080;-78
2022/11/27 08:52:04;;;;;;;13.88;6.72;;;;;;;;;;4870406;29;20061;-77
2022/11/27 08:54:30;;;;;;;15.13;4.78;;;;;;;;;;4883628;29;20057;-78
2022/11/27 08:56:56;;;;;;;10.45;5.18;;;;;;;;;;4859934;29;20549;-77
2022/11/27 08:59:23;;;;;;;13.35;4.43;;;;;;;;;;4890082;29;20483;-78
2022/11/27 09:01:49;;;;;;;17.90;5.57;;;;;;;;;;4887992;29;20608;-77
2022/11/27 09:04:16;;;;;;;16.75;6.38;;;;;;;;;;4885768;29;20063;-77
2022/11/27 09:06:42;;;;;;;11.05;5.28;;;;;;;;;;4873664;29;20183;-77
2022/11/27 09:09:08;;;;;;;16.77;6.32;;;;;;;;;;4872414;29;20136;-78
2022/11/27 09:11:35;;;;;;;15.35;5.90;;;;;;;;;;4869000;29;20500;-77
2022/11/27 09:14:02;;;;;;;12.15;5.43;;;;;;;;;;4870681;29;20060;-77
2022/11/27 09:16:29;;;;;;;12.27;5.10;;;;;;;;;;4871749;29;20073;-78
2022/11/27 09:18:56;;;;;;;11.25;5.40;;;;;;;;;;4869409;29;20061;-77
2022/11/27 09:21:25;;;;;;;16.50;5.82;;;;;;;;;;4874470;29;20512;-77
2022/11/27 09:23:53;;;;;;;12.63;6.72;;;;;;;;;;4873337;29;20067;-78
2022/11/27 09:26:19;;;;;;;15.00;6.03;;;;;;;;;;4891246;29;20472;-78
2022/11/27 09:28:45;;;;;;;14.60;5.38;;;;;;;;;;4870107;29;20049;-77
2022/11/27 09:31:13;;;;;;;17.02;6.85;;;;;;;;;;4870255;29;22097;-77
2022/11/27 09:33:40;;;;;;;11.05;5.00;;;;;;;;;;4866104;29;20533;-78
2022/11/27 09:36:08;;;;;;;16.02;5.10;;;;;;;;;;4885850;29;20067;-78
2022/11/27 09:38:34;;;;;;;10.43;5.15;;;;;;;;;;4872068;29;20068;-77
2022/11/27 09:41:06;;;;;;;12.98;5.15;;;;;;;;;;4883215;29;20161;-77
2022/11/27 09:43:35;;;;;;;14.60;5.03;;;;;;;;;;4888557;29;20060;-77
2022/11/27 09:46:07;;;;;;;13.73;5.30;;;;;;;;;;4878654;29;20168;-77
2022/11/27 09:48:38;;;;;;;15.00;5.15;;;;;;;;;;4880717;29;20152;-78
2022/11/27 09:51:10;;;;;;;13.40;5.47;;;;;;;;;;4888445;29;20068;-77
2022/11/27 09:53:43;;;;;;;18.15;5.40;;;;;;;;;;4888845;29;21051;-78
2022/11/27 09:56:11;;;;;;;16.42;5.18;;;;;;;;;;4874404;29;20061;-77
2022/11/27 09:58:38;;;;;;;14.90;5.20;;;;;;;;;;4859202;29;20064;-78
2022/11/27 10:01:09;;;;;;;18.35;6.25;;;;;;;;;;4860314;29;20587;-78
2022/11/27 10:03:36;;;;;;;11.90;4.95;;;;;;;;;;4887912;29;20117;-78
2022/11/27 10:06:22;;;;;;;19.65;8.27;;;;;;;;;;4882938;29;20068;-78
2022/11/27 10:08:54;;;;;;;33.58;13.63;;;;;;;;;;4879738;29;20052;-78
2022/11/27 10:11:29;;;;;;;30.23;12.02;;;;;;;;;;4884895;29;20060;-77
2022/11/27 10:13:59;;;;;;;15.02;6.45;;;;;;;;;;4859824;29;20057;-78
2022/11/27 10:16:37;;;;;;;19.48;7.43;;;;;;;;;;4882252;29;20068;-78
2022/11/27 10:19:20;;;;;;;13.43;5.45;;;;;;;;;;4871127;29;20059;-78
2022/11/27 10:21:52;;;;;;;12.02;5.20;;;;;;;;;;4887348;29;20065;-78
2022/11/27 10:24:38;;;;;;;15.80;7.25;;;;;;;;;;4878974;29;20061;-77
2022/11/27 10:27:16;;;;;;;14.00;5.82;;;;;;;;;;4883988;29;20061;-78
2022/11/27 10:29:47;;;;;;;13.25;6.50;;;;;;;;;;4888685;29;20068;-78
2022/11/27 10:32:20;;;;;;;11.63;5.57;;;;;;;;;;4873455;29;20086;-78
2022/11/27 10:35:30;;;;;;;16.70;5.47;;;;;;;;;;4885437;29;20096;-78
2022/11/27 10:38:08;;;;;;;18.47;6.03;;;;;;;;;;4863114;29;20068;-78
2022/11/27 10:40:57;;;;;;;20.73;6.15;;;;;;;;;;4881767;29;20065;-78
2022/11/27 10:43:24;;;;;;;12.95;5.38;;;;;;;;;;4879090;29;20168;-78
2022/11/27 10:45:56;;;;;;;14.15;5.60;;;;;;;;;;4872017;29;20060;-78
2022/11/27 10:48:23;;;;;;;13.70;5.70;;;;;;;;;;4899591;29;20510;-78
2022/11/27 10:50:50;;;;;;;14.00;5.15;;;;;;;;;;4897573;29;20052;-78
2022/11/27 10:53:25;;;;;;;15.70;5.90;;;;;;;;;;4869718;29;20063;-77
2022/11/27 10:55:51;;;;;;;15.00;5.97;;;;;;;;;;4870436;29;20057;-77
2022/11/27 10:58:23;;;;;;;16.67;5.63;;;;;;;;;;4879375;29;20508;-78
2022/11/27 11:00:59;;;;;;;14.13;5.60;;;;;;;;;;4887224;29;20057;-78
2022/11/27 11:03:25;;;;;;;12.95;5.75;;;;;;;;;;4868814;29;20140;-78
2022/11/27 11:05:57;;;;;;;14.98;5.80;;;;;;;;;;4882147;29;20069;-78
2022/11/27 11:08:43;;;;;;;15.05;6.25;;;;;;;;;;4869430;29;20056;-79
2022/11/27 11:11:10;;;;;;;13.93;5.57;;;;;;;;;;4874577;29;20105;-77
2022/11/27 11:13:39;;;;;;;13.70;5.82;;;;;;;;;;4871015;29;20060;-78
2022/11/27 11:16:14;;;;;;;11.88;5.38;;;;;;;;;;4883955;29;20053;-79
2022/11/27 11:18:49;;;;;;;13.70;5.35;;;;;;;;;;4880596;29;20518;-78
2022/11/27 11:21:26;;;;;;;16.60;5.93;;;;;;;;;;4867725;29;20140;-78
2022/11/27 11:23:59;;;;;;;13.23;5.32;;;;;;;;;;4882812;29;20057;-78
2022/11/27 11:26:34;;;;;;;15.40;6.10;;;;;;;;;;4875666;29;20055;-78
2022/11/27 11:29:03;;;;;;;12.32;4.97;;;;;;;;;;4873766;29;20052;-78
2022/11/27 11:31:29;;;;;;;17.50;6.95;;;;;;;;;;4884233;29;20057;-78
2022/11/27 11:34:01;;;;;;;13.07;5.22;;;;;;;;;;4884359;29;20286;-77
2022/11/27 11:36:27;;;;;;;12.73;5.38;;;;;;;;;;4872632;29;20152;-77
2022/11/27 11:38:54;;;;;;;10.88;4.80;;;;;;;;;;4892335;29;20053;-78
2022/11/27 11:41:22;;;;;;;16.98;6.05;;;;;;;;;;4887113;29;20183;-78
2022/11/27 11:44:00;;;;;;;13.32;5.20;;;;;;;;;;4888427;29;20052;-78
2022/11/27 11:46:28;;;;;;;12.25;5.32;;;;;;;;;;4888301;29;20060;-78
2022/11/27 11:49:06;;;;;;;14.43;6.35;;;;;;;;;;4884505;29;20872;-78
2022/11/27 11:51:35;;;;;;;13.15;5.45;;;;;;;;;;4876666;29;20536;-78
2022/11/27 11:54:09;;;;;;;12.02;4.80;;;;;;;;;;4873393;29;20069;-77
2022/11/27 11:56:41;;;;;;;12.55;5.68;;;;;;;;;;4885943;29;20061;-78
2022/11/27 11:59:16;;;;;;;12.68;6.10;;;;;;;;;;4872208;29;20071;-78
2022/11/27 12:01:55;;;;;;;13.73;5.05;;;;;;;;;;4896921;29;20136;-78
2022/11/27 12:04:41;;;;;;;11.20;5.13;;;;;;;;;;4872741;29;20072;-78
2022/11/27 12:07:26;;;;;;;14.55;5.95;;;;;;;;;;4866932;29;20513;-78
2022/11/27 12:10:00;;;;;;;14.02;5.80;;;;;;;;;;4884948;29;20061;-78
2022/11/27 12:12:27;;;;;;;13.55;5.13;;;;;;;;;;4872479;29;20562;-77
2022/11/27 12:15:12;;;;;;;13.20;5.30;;;;;;;;;;4875679;29;20065;-78
2022/11/27 12:17:59;;;;;;;12.18;5.22;;;;;;;;;;4864422;29;20069;-79
2022/11/27 12:20:35;;;;;;;13.77;6.25;;;;;;;;;;4870997;29;20057;-78
2022/11/27 12:23:07;;;;;;;11.65;5.55;;;;;;;;;;4871848;29;20065;-78
2022/11/27 12:25:51;;;;;;;9.95;4.90;;;;;;;;;;4890638;29;20374;-77
2022/11/27 12:28:30;;;;;;;13.25;5.47;;;;;;;;;;4877141;29;20053;-78
2022/11/27 12:31:15;;;;;;;10.38;5.63;;;;;;;;;;4885321;29;20616;-78
2022/11/27 12:33:45;;;;;;;11.82;5.43;;;;;;;;;;4879282;29;20061;-78
2022/11/27 12:36:11;;;;;;;10.00;5.13;;;;;;;;;;4911604;29;20072;-78
2022/11/27 12:39:07;;;;;;;14.80;5.47;;;;;;;;;;4866379;29;20068;-78
2022/11/27 12:41:52;;;;;;;14.35;5.93;;;;;;;;;;4875479;29;20134;-78
2022/11/27 12:44:49;;;;;;;15.90;5.75;;;;;;;;;;4887061;29;20147;-78
2022/11/27 12:47:21;;;;;;;21.08;8.05;;;;;;;;;;4876508;29;20061;-78
2022/11/27 12:49:51;;;;;;;16.98;7.93;;;;;;;;;;4885432;29;20721;-77
2022/11/27 12:52:20;;;;;;;12.90;7.18;;;;;;;;;;4875794;29;20137;-78
2022/11/27 12:54:49;;;;;;;16.60;7.35;;;;;;;;;;4890922;29;20053;-78
2022/11/27 12:57:19;;;;;;;14.45;8.32;;;;;;;;;;4869124;29;20068;-77
2022/11/27 12:59:49;;;;;;;13.00;6.50;;;;;;;;;;4884227;29;20064;-78
2022/11/27 13:02:37;;;;;;;14.40;5.60;;;;;;;;;;4884671;29;20071;-78
2022/11/27 13:05:06;;;;;;;13.90;5.45;;;;;;;;;;4871046;29;20144;-78
2022/11/27 13:07:37;;;;;;;12.65;6.53;;;;;;;;;;4889078;29;20535;-78
2022/11/27 13:10:22;;;;;;;12.93;5.95;;;;;;;;;;4869331;29;20062;-78
2022/11/27 13:12:58;;;;;;;12.10;5.88;;;;;;;;;;4895893;29;20066;-77
2022/11/27 13:15:29;;;;;;;12.30;5.75;;;;;;;;;;4869555;29;20128;-78
2022/11/27 13:18:12;;;;;;;13.50;6.05;;;;;;;;;;4868175;29;20679;-78
2022/11/27 13:20:39;;;;;;;10.50;5.68;;;;;;;;;;4888854;29;20090;-78
2022/11/27 13:23:05;;;;;;;13.68;5.57;;;;;;;;;;4870617;29;20065;-78
2022/11/27 13:25:34;;;;;;;13.98;6.28;;;;;;;;;;4886085;29;20141;-78
2022/11/27 13:28:02;;;;;;;11.75;5.25;;;;;;;;;;4884510;29;20135;-78
2022/11/27 13:30:30;;;;;;;14.35;6.32;;;;;;;;;;4888921;29;20113;-78
2022/11/27 13:33:00;;;;;;;12.25;6.28;;;;;;;;;;4870185;29;20061;-78
2022/11/27 13:35:35;;;;;;;12.55;6.40;;;;;;;;;;4883255;29;20508;-78
2022/11/27 13:38:21;;;;;;;12.65;5.95;;;;;;;;;;4875920;29;20744;-78
2022/11/27 13:40:50;;;;;;;12.35;5.78;;;;;;;;;;4889953;29;20291;-78
2022/11/27 13:43:27;;;;;;;11.43;4.95;;;;;;;;;;4892714;29;20052;-78
2022/11/27 13:46:01;;;;;;;12.82;5.80;;;;;;;;;;4889776;29;20147;-79
2022/11/27 13:48:48;;;;;;;12.40;6.38;;;;;;;;;;4889434;29;20064;-79
2022/11/27 13:51:26;;;;;;;12.30;5.57;;;;;;;;;;4890115;29;20180;-78
2022/11/27 13:53:52;;;;;;;14.57;6.28;;;;;;;;;;4879245;29;20045;-78
2022/11/27 13:56:27;;;;;;;11.82;5.90;;;;;;;;;;4881151;29;20109;-78
2022/11/27 13:58:53;;;;;;;15.15;5.88;;;;;;;;;;4887684;29;20057;-78
2022/11/27 14:01:20;;;;;;;15.20;6.18;;;;;;;;;;4865608;29;20068;-78
2022/11/27 14:03:47;;;;;;;15.63;7.82;;;;;;;;;;4871191;29;20057;-78
2022/11/27 14:06:19;;;;;;;13.45;6.00;;;;;;;;;;4892456;29;20440;-78
2022/11/27 14:09:06;;;;;;;13.32;5.97;;;;;;;;;;4872607;29;20053;-78
2022/11/27 14:11:41;;;;;;;14.43;6.35;;;;;;;;;;4869644;29;20040;-78
2022/11/27 14:14:18;;;;;;;14.13;6.38;;;;;;;;;;4864807;29;20048;-78
2022/11/27 14:17:03;;;;;;;13.00;5.60;;;;;;;;;;4892496;29;20057;-78
2022/11/27 14:19:33;;;;;;;14.95;7.75;;;;;;;;;;4869354;29;20046;-78
2022/11/27 14:22:12;;;;;;;14.13;7.53;;;;;;;;;;4876110;29;20060;-78
2022/11/27 14:24:42;;;;;;;15.80;8.60;;;;;;;;;;4891414;29;20052;-79
2022/11/27 14:27:17;;;;;;;17.17;7.25;;;;;;;;;;4872268;29;20057;-78
2022/11/27 14:29:44;;;;;;;16.92;6.72;;;;;;;;;;4874655;29;20090;-78
2022/11/27 14:32:12;;;;;;;14.48;7.07;;;;;;;;;;4875622;29;20084;-78
2022/11/27 14:34:39;;;;;;;13.60;6.72;;;;;;;;;;4870986;29;20967;-78
2022/11/27 14:37:06;;;;;;;13.77;6.50;;;;;;;;;;4873147;29;20060;-78
2022/11/27 14:39:33;;;;;;;14.20;6.63;;;;;;;;;;4874614;29;20535;-78
2022/11/27 14:42:01;;;;;;;16.80;6.93;;;;;;;;;;4886165;29;20076;-78
2022/11/27 14:44:27;;;;;;;16.80;7.78;;;;;;;;;;4862039;29;20060;-79
2022/11/27 14:46:54;;;;;;;16.30;8.25;;;;;;;;;;4870734;29;20056;-78